Time;durP1;ratioP1;P1;durP2;ratioP2;P2;SDS_P1;SDS_P2;PMS_P1;PMS_P2;Temp;Humidity;BMP_temperature;BMP_pressure;BME280_temperature;BME280_humidity;BME280_pressure;Samples;Min_cycle;Max_cycle;Signal;HPM_P1;HPM_P2
2023/01/29 00:01:44;;;;;;;;;25.40;23.40;;;;;6.33;52.46;99598.06;6217793;28;96858;-65
2023/01/29 00:04:48;;;;;;;;;21.00;19.00;;;;;6.31;52.44;99597.38;6243483;27;96293;-66
2023/01/29 00:07:51;;;;;;;;;18.00;18.00;;;;;6.36;52.33;99590.47;6236275;28;96473;-65
2023/01/29 00:11:01;;;;;;;;;18.20;16.60;;;;;6.38;52.04;99588.47;6236419;27;96498;-65
2023/01/29 00:14:04;;;;;;;;;24.00;21.80;;;;;6.37;51.80;99591.31;6239814;27;96964;-66
2023/01/29 00:17:09;;;;;;;;;19.00;17.50;;;;;6.37;51.78;99594.00;6245530;27;96380;-66
2023/01/29 00:20:13;;;;;;;;;17.75;15.00;;;;;6.38;51.60;99599.19;6232429;27;97014;-66
2023/01/29 00:23:17;;;;;;;;;17.00;15.00;;;;;6.35;51.15;99599.53;6239118;27;96212;-67
2023/01/29 00:26:22;;;;;;;;;18.40;17.40;;;;;6.39;50.82;99605.38;6242214;27;96680;-67
2023/01/29 00:29:25;;;;;;;;;21.75;18.75;;;;;6.36;50.46;99603.88;6238338;28;97130;-66
2023/01/29 00:32:29;;;;;;;;;15.40;14.40;;;;;6.35;50.68;99604.06;6222373;28;98451;-66
2023/01/29 00:35:33;;;;;;;;;19.00;16.00;;;;;6.28;50.13;99606.63;6215863;28;96822;-66
2023/01/29 00:38:38;;;;;;;;;13.60;12.60;;;;;6.20;50.08;99597.81;6240067;27;96285;-66
2023/01/29 00:45:04;;;;;;;;;13.00;12.75;;;;;6.29;50.08;99597.56;6253865;27;96254;-66
2023/01/29 00:48:08;;;;;;;;;17.00;15.00;;;;;6.31;49.74;99610.78;6252290;27;96475;-66
2023/01/29 00:51:11;;;;;;;;;16.20;15.00;;;;;6.28;49.10;99611.97;6221825;28;97022;-67
2023/01/29 00:54:15;;;;;;;;;12.40;10.40;;;;;6.23;48.93;99613.50;6231973;27;96600;-66
2023/01/29 00:57:19;;;;;;;;;15.00;14.00;;;;;6.23;48.76;99619.69;6239410;28;96014;-66
2023/01/29 01:00:23;;;;;;;;;16.50;12.75;;;;;6.26;48.80;99616.66;6246146;27;96295;-65
2023/01/29 01:03:26;;;;;;;;;16.40;16.00;;;;;6.24;48.41;99610.66;6227940;27;97051;-66
2023/01/29 01:06:29;;;;;;;;;12.60;12.60;;;;;6.24;48.17;99599.13;6251042;27;97157;-66
2023/01/29 01:13:06;;;;;;;;;14.00;13.00;;;;;6.25;48.26;99614.19;6202131;28;96436;-66
2023/01/29 01:16:11;;;;;;;;;18.00;17.00;;;;;6.25;48.14;99617.69;6236631;27;96238;-66
2023/01/29 01:19:16;;;;;;;;;14.40;13.60;;;;;6.23;48.34;99618.88;6230380;28;96791;-65
2023/01/29 01:22:19;;;;;;;;;17.00;14.40;;;;;6.22;48.47;99611.84;6240283;27;95986;-65
2023/01/29 01:25:25;;;;;;;;;15.00;13.00;;;;;6.21;48.75;99618.19;6243900;27;96377;-65
2023/01/29 01:28:30;;;;;;;;;19.50;16.00;;;;;6.21;48.78;99619.03;6239982;28;96444;-66
2023/01/29 01:31:33;;;;;;;;;15.40;14.20;;;;;6.23;48.79;99618.88;6241969;27;96227;-66
2023/01/29 01:34:36;;;;;;;;;19.00;16.00;;;;;6.20;48.94;99611.19;6236920;27;96354;-67
2023/01/29 01:37:40;;;;;;;;;15.60;15.40;;;;;6.20;49.15;99630.78;6223910;27;96103;-65
2023/01/29 01:40:45;;;;;;;;;15.40;14.00;;;;;6.21;48.84;99620.88;6222961;28;96999;-66
2023/01/29 01:43:54;;;;;;;;;15.60;15.00;;;;;6.07;48.99;99603.72;6240285;27;96196;-65
2023/01/29 01:47:00;;;;;;;;;17.40;15.40;;;;;6.22;48.21;99627.91;6221279;27;96520;-65
2023/01/29 01:50:09;;;;;;;;;14.20;13.20;;;;;6.22;48.08;99636.75;6230367;27;96304;-65
2023/01/29 01:53:16;;;;;;;;;15.00;13.60;;;;;6.15;47.81;99630.47;6239858;27;96397;-65
2023/01/29 01:56:24;;;;;;;;;16.00;15.50;;;;;6.14;47.87;99630.63;6235847;28;96372;-66
2023/01/29 01:59:29;;;;;;;;;12.20;11.00;;;;;6.10;47.37;99627.47;6221572;28;96532;-65
2023/01/29 02:09:33;;;;;;;;;15.25;14.25;;;;;6.05;47.55;99617.28;6240630;28;97522;-66
2023/01/29 02:12:37;;;;;;;;;14.60;13.60;;;;;6.06;47.39;99594.84;6240028;28;96605;-65
2023/01/29 02:15:45;;;;;;;;;12.75;10.25;;;;;6.07;47.21;99599.19;6239718;27;96582;-65
2023/01/29 02:18:49;;;;;;;;;16.20;14.80;;;;;6.05;46.94;99600.41;6240223;28;96373;-66
2023/01/29 02:22:19;;;;;;;;;14.00;12.40;;;;;5.95;47.16;99581.88;6259361;27;96545;-65
2023/01/29 02:26:04;;;;;;;;;18.00;16.00;;;;;5.93;47.29;99583.88;6230331;27;97047;-66
2023/01/29 02:29:23;;;;;;;;;12.00;11.60;;;;;5.92;46.85;99579.53;6240343;27;96866;-66
2023/01/29 02:32:35;;;;;;;;;22.00;20.00;;;;;5.95;47.09;99581.03;6220478;28;96316;-65
2023/01/29 02:35:44;;;;;;;;;18.00;17.75;;;;;6.02;47.22;99574.81;6239992;27;96299;-67
2023/01/29 02:39:00;;;;;;;;;20.00;17.00;;;;;6.00;47.37;99573.31;6222135;28;96832;-66
2023/01/29 02:42:15;;;;;;;;;16.00;15.00;;;;;6.07;47.00;99576.94;6239594;28;96633;-66
2023/01/29 02:45:30;;;;;;;;;16.60;15.60;;;;;5.96;47.31;99572.00;6234695;27;96186;-66
2023/01/29 02:48:41;;;;;;;;;15.60;14.80;;;;;5.97;47.32;99570.97;6238925;28;96229;-66
2023/01/29 02:51:51;;;;;;;;;16.75;14.25;;;;;5.91;47.16;99582.41;6220617;28;96237;-66
2023/01/29 02:55:01;;;;;;;;;16.50;15.00;;;;;5.92;47.64;99581.38;6219174;27;96793;-66
2023/01/29 02:58:13;;;;;;;;;14.80;12.00;;;;;5.89;47.46;99579.91;6222004;28;96322;-66
2023/01/29 03:01:23;;;;;;;;;15.40;15.00;;;;;5.87;47.36;99581.06;6219404;27;96497;-66
2023/01/29 03:04:29;;;;;;;;;13.00;11.80;;;;;5.76;47.46;99565.38;6225290;27;96394;-65
2023/01/29 03:07:43;;;;;;;;;15.40;15.40;;;;;5.80;47.49;99574.72;6229397;27;98781;-65
2023/01/29 03:11:04;;;;;;;;;17.00;14.80;;;;;5.77;48.04;99577.72;6222634;27;96725;-65
2023/01/29 03:14:13;;;;;;;;;19.40;17.40;;;;;5.74;48.12;99578.94;6231847;27;97285;-66
2023/01/29 03:17:21;;;;;;;;;17.00;14.75;;;;;5.79;48.25;99581.91;6245321;27;97132;-65
2023/01/29 03:20:31;;;;;;;;;17.00;16.80;;;;;5.78;48.15;99593.63;6237988;28;96340;-66
2023/01/29 03:34:15;;;;;;;;;21.00;18.00;;;;;5.83;47.92;99599.28;6220870;28;96611;-66
2023/01/29 03:37:25;;;;;;;;;27.20;24.00;;;;;5.83;48.03;99603.81;6253601;27;97438;-66
2023/01/29 03:40:33;;;;;;;;;24.40;23.00;;;;;5.84;47.94;99610.81;6219524;27;96435;-65
2023/01/29 03:43:45;;;;;;;;;26.40;24.00;;;;;5.80;47.95;99605.00;6223153;27;96356;-65
2023/01/29 03:46:56;;;;;;;;;24.75;23.00;;;;;5.77;47.85;99608.00;6219524;28;96381;-65
2023/01/29 03:50:07;;;;;;;;;22.00;20.20;;;;;5.73;47.80;99617.38;6237323;28;96376;-66
2023/01/29 03:53:20;;;;;;;;;27.40;24.20;;;;;5.76;47.81;99609.03;6231461;27;96270;-66
2023/01/29 03:56:37;;;;;;;;;29.00;28.00;;;;;5.73;48.07;99593.31;6203944;27;96845;-66
2023/01/29 03:59:53;;;;;;;;;25.00;24.00;;;;;5.70;48.08;99582.97;6223053;28;96193;-67
2023/01/29 04:03:21;;;;;;;;;23.60;22.60;;;;;5.70;47.22;99580.28;6228212;27;96239;-65
2023/01/29 04:06:30;;;;;;;;;22.50;20.00;;;;;5.63;47.58;99587.31;6213020;28;96666;-67
2023/01/29 04:09:46;;;;;;;;;22.00;20.00;;;;;5.63;47.65;99584.66;6217322;27;97157;-66
2023/01/29 04:12:56;;;;;;;;;22.00;20.40;;;;;5.62;47.26;99591.00;6225152;27;96535;-66
2023/01/29 04:16:04;;;;;;;;;25.50;23.25;;;;;5.65;46.97;99586.16;6255259;27;97043;-65
2023/01/29 04:19:28;;;;;;;;;18.50;17.00;;;;;5.70;46.75;99574.09;6240918;28;96896;-66
2023/01/29 04:22:36;;;;;;;;;21.00;17.75;;;;;5.65;46.46;99566.59;6225713;27;96226;-65
2023/01/29 04:25:46;;;;;;;;;17.00;16.75;;;;;5.61;46.42;99565.28;6223724;28;98146;-65
2023/01/29 04:29:02;;;;;;;;;21.00;19.00;;;;;5.56;46.08;99559.63;6253605;27;96553;-67
2023/01/29 04:32:14;;;;;;;;;19.40;17.00;;;;;5.60;45.35;99561.78;6223765;28;96340;-65
2023/01/29 04:35:30;;;;;;;;;16.00;14.75;;;;;5.60;44.82;99566.28;6229565;28;96404;-65
2023/01/29 04:38:47;;;;;;;;;20.40;19.00;;;;;5.48;45.32;99571.16;6256318;27;96317;-65
2023/01/29 04:41:55;;;;;;;;;21.60;20.00;;;;;5.46;45.56;99558.97;6225634;27;96434;-65
2023/01/29 04:45:06;;;;;;;;;20.00;18.00;;;;;5.47;45.64;99549.97;6246085;27;96841;-67
2023/01/29 04:48:19;;;;;;;;;22.40;19.80;;;;;5.33;46.25;99527.44;6240205;28;96248;-67
2023/01/29 04:51:30;;;;;;;;;26.33;24.00;;;;;5.37;46.18;99541.31;6246258;27;96353;-66
2023/01/29 04:54:49;;;;;;;;;21.00;18.00;;;;;5.35;46.44;99535.28;6239546;27;96362;-66
2023/01/29 04:58:00;;;;;;;;;19.80;18.40;;;;;5.26;46.30;99536.31;6240699;27;96371;-67
2023/01/29 05:01:06;;;;;;;;;22.40;19.60;;;;;5.22;46.24;99528.66;6240237;28;96750;-67
2023/01/29 05:04:14;;;;;;;;;23.00;21.00;;;;;5.23;45.94;99527.63;6234542;27;97271;-67
2023/01/29 05:07:19;;;;;;;;;24.00;21.00;;;;;5.21;46.04;99524.31;6229994;27;96856;-66
2023/01/29 05:10:25;;;;;;;;;22.40;19.20;;;;;5.19;45.47;99530.81;6233580;28;97140;-66
2023/01/29 05:13:31;;;;;;;;;25.00;24.00;;;;;5.04;45.61;99520.00;6233183;27;96501;-65
2023/01/29 05:16:41;;;;;;;;;24.00;22.00;;;;;4.98;46.19;99511.84;6237750;28;96345;-65
2023/01/29 05:19:46;;;;;;;;;21.40;20.00;;;;;5.01;45.77;99511.50;6240131;27;96298;-65
2023/01/29 05:22:50;;;;;;;;;21.00;19.00;;;;;4.93;45.47;99514.19;6233598;27;97037;-64
2023/01/29 05:25:56;;;;;;;;;21.00;19.00;;;;;4.89;45.91;99523.56;6232893;27;96492;-66
2023/01/29 05:28:59;;;;;;;;;20.40;19.00;;;;;4.93;46.26;99520.38;6235392;28;96373;-65
2023/01/29 05:32:02;;;;;;;;;24.60;22.60;;;;;4.79;46.87;99532.56;6236586;27;96339;-65
2023/01/29 05:35:06;;;;;;;;;22.33;20.67;;;;;4.77;47.41;99539.94;6230246;28;96501;-66
2023/01/29 05:38:10;;;;;;;;;22.00;21.00;;;;;4.66;47.25;99523.41;6234045;28;96753;-67
2023/01/29 05:41:15;;;;;;;;;24.75;22.75;;;;;4.79;46.93;99539.75;6236911;27;96487;-67
2023/01/29 05:44:19;;;;;;;;;20.00;19.25;;;;;4.77;46.74;99547.13;6231243;27;96472;-66
2023/01/29 05:47:22;;;;;;;;;26.40;25.80;;;;;4.77;47.05;99552.47;6237653;27;96535;-65
2023/01/29 05:50:27;;;;;;;;;20.00;18.00;;;;;4.79;46.32;99556.63;6237620;27;96361;-65
2023/01/29 05:53:31;;;;;;;;;17.25;17.00;;;;;4.79;45.70;99561.13;6236288;28;96459;-65
2023/01/29 05:56:37;;;;;;;;;18.50;17.75;;;;;4.84;46.25;99568.66;6238256;27;97534;-65
2023/01/29 05:59:40;;;;;;;;;17.00;16.50;;;;;4.57;46.36;99557.31;6207832;28;96533;-65
2023/01/29 06:02:43;;;;;;;;;18.00;16.00;;;;;4.54;46.78;99576.34;6207890;28;96983;-65
2023/01/29 06:05:47;;;;;;;;;18.00;16.00;;;;;4.59;46.77;99570.50;6213176;28;96824;-66
2023/01/29 06:08:50;;;;;;;;;17.00;14.25;;;;;4.50;46.70;99582.16;6213038;28;98781;-65
2023/01/29 06:11:55;;;;;;;;;17.80;17.80;;;;;4.49;46.67;99585.84;6210202;28;96543;-65
2023/01/29 06:14:58;;;;;;;;;21.40;21.00;;;;;4.48;46.94;99571.66;6210599;28;96410;-65
2023/01/29 06:18:02;;;;;;;;;20.00;19.50;;;;;4.42;46.78;99582.16;6217158;28;96625;-65
2023/01/29 06:21:08;;;;;;;;;18.00;15.00;;;;;4.46;46.37;99594.16;6205938;28;96803;-65
2023/01/29 06:24:11;;;;;;;;;15.60;15.00;;;;;4.43;45.69;99575.81;6210082;28;97014;-66
2023/01/29 06:27:16;;;;;;;;;15.50;15.50;;;;;4.43;45.64;99592.69;6196812;28;96740;-66
2023/01/29 06:30:20;;;;;;;;;17.60;17.00;;;;;4.43;45.04;99584.66;6211679;28;96933;-66
2023/01/29 06:33:23;;;;;;;;;17.60;16.60;;;;;4.51;44.94;99592.69;6217818;28;96236;-67
2023/01/29 06:36:27;;;;;;;;;18.80;17.20;;;;;4.53;44.70;99589.84;6229136;27;96044;-65
2023/01/29 06:39:30;;;;;;;;;16.20;14.20;;;;;4.49;44.56;99593.84;6212753;28;97430;-65
2023/01/29 06:42:36;;;;;;;;;19.00;18.00;;;;;4.63;44.76;99598.53;6207314;28;96504;-65
2023/01/29 06:45:47;;;;;;;;;20.00;19.60;;;;;4.49;44.38;99600.03;6216473;28;96782;-65
2023/01/29 06:48:50;;;;;;;;;15.40;14.40;;;;;4.51;44.70;99608.69;6212100;28;96631;-66
2023/01/29 06:51:53;;;;;;;;;16.40;16.00;;;;;4.41;44.59;99613.34;6226835;28;96341;-66
2023/01/29 06:54:56;;;;;;;;;16.50;15.50;;;;;4.40;44.63;99606.34;6204353;28;97096;-66
2023/01/29 06:58:05;;;;;;;;;17.00;16.00;;;;;4.51;44.32;99602.53;6215926;27;96372;-66
2023/01/29 07:01:10;;;;;;;;;15.00;14.20;;;;;4.44;43.92;99604.19;6230030;27;96155;-67
2023/01/29 07:04:27;;;;;;;;;14.00;13.00;;;;;4.49;43.73;99599.19;6210735;28;96827;-67
2023/01/29 07:07:30;;;;;;;;;16.50;15.25;;;;;4.53;43.82;99604.03;6217902;27;97336;-67
2023/01/29 07:10:34;;;;;;;;;16.40;15.00;;;;;4.62;43.65;99603.03;6235901;28;96975;-67
2023/01/29 07:13:39;;;;;;;;;16.40;15.40;;;;;4.64;43.35;99610.91;6218175;28;96457;-67
2023/01/29 07:16:42;;;;;;;;;17.00;14.00;;;;;4.57;43.03;99610.72;6237316;27;96381;-67
2023/01/29 07:19:45;;;;;;;;;15.00;14.00;;;;;4.56;43.01;99616.22;6236063;27;96889;-66
2023/01/29 07:22:48;;;;;;;;;15.00;13.00;;;;;4.55;42.65;99615.38;6239004;27;96859;-66
2023/01/29 07:25:52;;;;;;;;;15.80;15.20;;;;;4.56;42.43;99617.06;6241578;27;96332;-66
2023/01/29 07:28:56;;;;;;;;;13.00;12.60;;;;;4.56;42.22;99613.53;6223321;27;96787;-67
2023/01/29 07:32:00;;;;;;;;;17.00;16.00;;;;;4.58;42.16;99601.72;6235718;27;96381;-66
2023/01/29 07:35:04;;;;;;;;;11.00;10.80;;;;;4.43;41.26;99608.69;6239243;27;96679;-66
2023/01/29 07:38:08;;;;;;;;;13.00;12.00;;;;;4.46;41.64;99620.88;6239950;27;97174;-66
2023/01/29 07:41:12;;;;;;;;;13.75;12.25;;;;;4.38;41.93;99624.38;6237640;27;96328;-66
2023/01/29 07:44:21;;;;;;;;;15.40;15.20;;;;;4.39;42.19;99620.72;6249336;27;97073;-66
2023/01/29 07:47:24;;;;;;;;;12.00;11.00;;;;;4.46;41.75;99628.88;6245111;27;96408;-66
2023/01/29 07:50:28;;;;;;;;;16.40;15.40;;;;;4.49;42.15;99632.06;6236300;27;96397;-67
2023/01/29 07:53:31;;;;;;;;;16.25;16.25;;;;;4.59;42.33;99635.44;6227577;27;96445;-65
2023/01/29 07:56:34;;;;;;;;;17.00;15.20;;;;;4.59;42.32;99645.28;6230057;27;96436;-69
2023/01/29 07:59:39;;;;;;;;;13.50;13.50;;;;;4.43;42.29;99645.25;6219687;28;98544;-65
2023/01/29 08:02:42;;;;;;;;;17.00;16.75;;;;;4.48;42.23;99653.59;6222092;22;96356;-67
2023/01/29 08:05:46;;;;;;;;;15.20;15.00;;;;;4.52;42.49;99622.88;6218935;28;96339;-68
2023/01/29 08:08:51;;;;;;;;;17.00;16.40;;;;;4.89;42.24;99654.47;6228751;27;96937;-69
2023/01/29 08:11:54;;;;;;;;;15.75;14.75;;;;;5.01;42.32;99640.59;6223451;28;96469;-69
2023/01/29 08:14:58;;;;;;;;;15.00;14.00;;;;;5.29;41.78;99649.09;6198225;28;96653;-69
2023/01/29 08:18:02;;;;;;;;;18.00;17.00;;;;;5.59;41.38;99656.38;6203025;28;96428;-67
2023/01/29 08:21:06;;;;;;;;;13.20;13.00;;;;;5.96;39.84;99669.16;6224313;28;96206;-67
2023/01/29 08:24:09;;;;;;;;;10.00;10.00;;;;;6.48;38.91;99672.13;6222899;28;96994;-67
2023/01/29 08:27:12;;;;;;;;;10.20;9.60;;;;;7.81;37.15;99679.53;6220881;28;96605;-67
2023/01/29 08:30:17;;;;;;;;;15.50;14.50;;;;;8.52;35.18;99683.38;6221391;28;96801;-66
2023/01/29 08:33:21;;;;;;;;;7.00;7.00;;;;;8.85;34.74;99681.03;6217597;28;96235;-67
2023/01/29 08:36:39;;;;;;;;;10.60;10.60;;;;;9.09;33.69;99690.59;6216692;28;96309;-67
2023/01/29 08:39:42;;;;;;;;;11.60;11.60;;;;;8.99;33.85;99690.91;6202388;28;96298;-67
2023/01/29 08:42:46;;;;;;;;;14.40;13.40;;;;;9.01;34.58;99696.09;6203553;28;96649;-67
2023/01/29 08:45:50;;;;;;;;;11.00;11.00;;;;;9.04;34.72;99699.22;6200463;28;96309;-67
2023/01/29 08:48:54;;;;;;;;;12.00;12.00;;;;;9.04;33.93;99690.34;6202497;28;96473;-67
2023/01/29 08:51:57;;;;;;;;;13.00;12.00;;;;;9.16;33.72;99679.91;6204259;28;96833;-67
2023/01/29 08:55:01;;;;;;;;;12.20;12.20;;;;;9.65;33.60;99669.13;6209236;28;96929;-67
2023/01/29 08:58:05;;;;;;;;;15.75;14.75;;;;;10.48;33.16;99673.53;6211953;28;96331;-67
2023/01/29 09:01:12;;;;;;;;;15.00;13.00;;;;;11.12;31.69;99674.72;6204288;28;97102;-68
2023/01/29 09:04:15;;;;;;;;;11.40;11.40;;;;;11.12;31.52;99652.28;6198912;28;96578;-67
2023/01/29 09:07:29;;;;;;;;;13.33;12.33;;;;;10.93;31.67;99664.72;6199349;28;96655;-67
2023/01/29 09:10:32;;;;;;;;;10.00;10.00;;;;;10.78;31.27;99666.78;6193436;28;98332;-67
2023/01/29 09:13:35;;;;;;;;;11.40;10.60;;;;;12.35;29.67;99654.19;6219951;28;96534;-66
2023/01/29 09:16:40;;;;;;;;;10.25;9.25;;;;;12.44;29.72;99648.34;6218081;28;96047;-67
2023/01/29 09:19:43;;;;;;;;;11.50;11.00;;;;;14.15;27.20;99644.25;6238481;28;98407;-67
2023/01/29 09:22:48;;;;;;;;;11.00;10.40;;;;;15.73;24.91;99657.47;6203336;28;97095;-68
2023/01/29 09:25:51;;;;;;;;;12.33;12.00;;;;;16.09;24.34;99670.78;6201903;28;97199;-68
2023/01/29 09:28:55;;;;;;;;;13.40;11.80;;;;;15.86;24.58;99670.81;6219019;28;96356;-67
2023/01/29 09:31:59;;;;;;;;;11.25;11.00;;;;;15.30;25.19;99657.72;6221773;28;96334;-67
2023/01/29 09:35:03;;;;;;;;;14.00;13.75;;;;;14.30;26.00;99654.72;6210074;28;96269;-67
2023/01/29 09:38:06;;;;;;;;;20.60;19.60;;;;;13.12;27.40;99643.16;6203024;28;96457;-67
2023/01/29 09:41:27;;;;;;;;;13.40;11.40;;;;;12.05;28.99;99638.50;6199374;28;96674;-67
2023/01/29 09:44:46;;;;;;;;;14.00;14.00;;;;;11.28;30.16;99636.53;6208591;28;98389;-66
2023/01/29 09:47:52;;;;;;;;;13.40;12.40;;;;;10.42;31.48;99624.78;6203932;28;96791;-66
2023/01/29 09:50:58;;;;;;;;;17.00;15.25;;;;;9.88;32.72;99623.88;6194437;28;96687;-67
2023/01/29 09:54:13;;;;;;;;;14.40;14.40;;;;;9.38;33.61;99620.47;6202717;28;96299;-67
2023/01/29 09:57:25;;;;;;;;;15.00;14.75;;;;;8.67;34.57;99613.44;6195105;28;97239;-67
2023/01/29 10:00:37;;;;;;;;;19.00;17.25;;;;;8.16;35.20;99605.41;6200611;28;96600;-68
2023/01/29 10:03:58;;;;;;;;;14.00;13.00;;;;;7.82;36.43;99605.19;6203143;28;96873;-68
2023/01/29 10:07:22;;;;;;;;;15.00;15.00;;;;;7.44;37.38;99596.41;6203080;28;96908;-67
2023/01/29 10:10:44;;;;;;;;;18.80;17.00;;;;;7.11;37.96;99595.06;6210972;28;98326;-66
2023/01/29 10:14:00;;;;;;;;;20.60;18.60;;;;;6.88;38.21;99600.50;6207387;28;96946;-66
2023/01/29 10:17:19;;;;;;;;;20.00;19.40;;;;;6.67;39.04;99594.97;6204196;28;96863;-66
2023/01/29 10:20:48;;;;;;;;;15.25;15.00;;;;;6.29;39.49;99594.91;6214124;28;96371;-66
2023/01/29 10:23:57;;;;;;;;;21.00;20.00;;;;;6.03;40.40;99581.81;6212572;28;98798;-67
2023/01/29 10:27:02;;;;;;;;;19.00;17.00;;;;;5.93;41.05;99589.22;6212886;28;96098;-67
2023/01/29 10:30:09;;;;;;;;;19.00;18.00;;;;;5.88;41.06;99588.09;6214845;28;96453;-67
2023/01/29 10:33:18;;;;;;;;;16.00;15.60;;;;;5.69;41.30;99581.28;6217377;28;96317;-66
2023/01/29 10:36:26;;;;;;;;;22.40;21.00;;;;;5.69;41.61;99565.25;6214428;28;96651;-66
2023/01/29 10:39:31;;;;;;;;;21.20;20.60;;;;;5.54;42.31;99561.63;6216766;28;96252;-66
2023/01/29 10:42:46;;;;;;;;;21.00;18.50;;;;;5.21;43.45;99547.53;6215313;28;96639;-66
2023/01/29 10:45:59;;;;;;;;;21.00;20.60;;;;;5.24;43.23;99542.66;6216697;28;96884;-66
2023/01/29 10:49:17;;;;;;;;;22.00;20.50;;;;;5.14;43.64;99536.69;6199010;28;96331;-66
2023/01/29 10:52:35;;;;;;;;;23.00;22.00;;;;;5.17;43.46;99533.69;6214694;28;96408;-66
2023/01/29 10:55:52;;;;;;;;;25.40;23.00;;;;;5.20;43.62;99511.09;6203236;28;98456;-66
2023/01/29 10:58:59;;;;;;;;;24.75;23.00;;;;;5.10;43.63;99500.63;6199117;28;98943;-66
2023/01/29 11:02:03;;;;;;;;;22.25;21.25;;;;;5.06;43.69;99498.47;6200759;28;97861;-66
2023/01/29 11:05:19;;;;;;;;;23.60;22.40;;;;;5.22;43.34;99485.06;6197526;28;96639;-66
2023/01/29 11:08:28;;;;;;;;;24.00;23.00;;;;;5.36;43.17;99496.84;6204153;28;96938;-65
2023/01/29 11:11:38;;;;;;;;;26.00;23.00;;;;;5.40;42.51;99484.78;6205256;28;96640;-66
2023/01/29 11:14:46;;;;;;;;;22.00;20.00;;;;;5.67;41.42;99473.59;6211394;28;96246;-66
2023/01/29 11:18:04;;;;;;;;;21.00;21.00;;;;;5.78;40.88;99454.50;6201192;28;96200;-66
2023/01/29 11:21:07;;;;;;;;;21.00;20.50;;;;;5.91;40.80;99438.69;6198672;28;99156;-66
2023/01/29 11:24:16;;;;;;;;;25.00;22.60;;;;;6.13;40.52;99438.88;6221429;28;98308;-66
2023/01/29 11:27:28;;;;;;;;;19.00;18.00;;;;;5.99;40.14;99449.38;6213566;28;97351;-66
2023/01/29 11:30:35;;;;;;;;;21.00;19.80;;;;;5.70;40.83;99441.19;6211359;28;96379;-66
2023/01/29 11:33:38;;;;;;;;;18.60;17.00;;;;;5.58;40.63;99442.56;6207315;28;98386;-66
2023/01/29 11:36:43;;;;;;;;;25.20;23.60;;;;;5.37;41.14;99435.19;6202061;28;98606;-66
2023/01/29 11:39:49;;;;;;;;;19.75;18.00;;;;;5.27;41.85;99428.38;6206985;28;96825;-66
2023/01/29 11:42:52;;;;;;;;;25.00;24.00;;;;;5.19;42.12;99419.38;6205849;28;96692;-65
2023/01/29 11:45:59;;;;;;;;;22.00;20.00;;;;;5.03;41.89;99403.44;6208806;28;96858;-65
2023/01/29 11:49:03;;;;;;;;;19.00;18.75;;;;;5.15;41.96;99423.41;6210086;28;98462;-66
2023/01/29 11:52:24;;;;;;;;;17.80;17.80;;;;;5.81;40.85;99400.63;6209704;28;99567;-66
2023/01/29 11:55:32;;;;;;;;;19.00;19.00;;;;;6.84;38.59;99401.66;6200386;28;96515;-67
2023/01/29 11:58:54;;;;;;;;;18.50;17.00;;;;;7.18;37.27;99402.94;6204082;28;96296;-66
2023/01/29 12:02:05;;;;;;;;;18.00;16.50;;;;;7.00;37.26;99400.66;6220655;28;96751;-67
2023/01/29 12:05:15;;;;;;;;;19.00;17.20;;;;;6.89;38.19;99398.47;6205815;28;96928;-66
2023/01/29 12:08:21;;;;;;;;;19.40;19.00;;;;;6.88;38.27;99391.44;6204225;28;96330;-67
2023/01/29 12:11:29;;;;;;;;;19.80;17.80;;;;;6.76;38.43;99382.19;6204330;28;96379;-66
2023/01/29 12:14:34;;;;;;;;;16.75;16.25;;;;;6.71;38.71;99371.19;6206314;28;96329;-67
2023/01/29 12:17:40;;;;;;;;;18.25;17.75;;;;;6.68;38.62;99388.47;6207231;28;96581;-66
2023/01/29 12:20:50;;;;;;;;;19.00;17.75;;;;;6.56;38.33;99378.38;6206625;28;96390;-66
2023/01/29 12:24:00;;;;;;;;;17.60;16.60;;;;;5.93;37.77;99321.63;6210616;28;99526;-67
2023/01/29 12:27:15;;;;;;;;;24.40;23.40;;;;;6.17;38.02;99386.63;6206233;28;98394;-65
2023/01/29 12:30:25;;;;;;;;;18.40;17.40;;;;;6.15;38.58;99391.34;6211244;28;96325;-66
2023/01/29 12:33:39;;;;;;;;;19.60;18.00;;;;;5.88;38.72;99393.56;6208954;28;96876;-66
2023/01/29 12:36:52;;;;;;;;;21.40;18.60;;;;;5.87;38.44;99399.94;6224374;28;96336;-66
2023/01/29 12:39:56;;;;;;;;;18.00;17.00;;;;;5.90;38.53;99396.91;6206062;28;96455;-65
2023/01/29 12:43:05;;;;;;;;;17.00;16.60;;;;;5.80;38.90;99398.97;6222557;28;96431;-66
2023/01/29 12:46:17;;;;;;;;;19.00;18.00;;;;;5.62;39.73;99379.69;6220786;28;96868;-65
2023/01/29 12:49:26;;;;;;;;;21.00;19.80;;;;;5.76;39.68;99397.66;6219459;28;97081;-66
2023/01/29 12:52:39;;;;;;;;;21.75;21.00;;;;;5.81;39.78;99384.59;6214246;28;96255;-66
2023/01/29 12:55:46;;;;;;;;;20.80;20.80;;;;;5.75;39.93;99393.31;6196571;28;97502;-65
2023/01/29 12:58:54;;;;;;;;;23.80;21.00;;;;;5.56;39.99;99399.97;6208575;28;96693;-66
2023/01/29 13:02:03;;;;;;;;;20.80;20.20;;;;;5.53;40.21;99394.97;6209555;28;96307;-65
2023/01/29 13:05:20;;;;;;;;;19.50;18.50;;;;;5.57;40.30;99396.28;6199950;28;96340;-65
2023/01/29 13:08:27;;;;;;;;;19.00;19.00;;;;;5.59;40.50;99388.06;6203251;28;96867;-66
2023/01/29 13:11:38;;;;;;;;;22.20;20.80;;;;;5.60;40.44;99379.88;6208913;28;96352;-66
2023/01/29 13:14:49;;;;;;;;;24.40;23.40;;;;;5.57;40.49;99382.09;6207559;28;96487;-66
2023/01/29 13:17:57;;;;;;;;;18.75;18.50;;;;;5.48;39.64;99377.78;6208242;28;96218;-66
2023/01/29 13:21:01;;;;;;;;;21.75;20.00;;;;;5.59;39.84;99356.81;6198740;28;96091;-68
2023/01/29 13:24:11;;;;;;;;;20.40;20.00;;;;;5.66;39.97;99370.31;6200911;28;96979;-67
2023/01/29 13:27:21;;;;;;;;;23.00;20.00;;;;;5.86;39.90;99362.66;6213247;28;96860;-66
2023/01/29 13:30:29;;;;;;;;;25.60;23.00;;;;;5.81;39.99;99349.81;6203645;28;96829;-66
2023/01/29 13:33:33;;;;;;;;;21.75;19.75;;;;;5.82;39.93;99361.31;6213485;28;96707;-66
2023/01/29 13:36:41;;;;;;;;;24.00;21.40;;;;;5.86;39.95;99351.94;6203024;28;99259;-66
2023/01/29 13:39:49;;;;;;;;;21.60;20.60;;;;;5.78;39.53;99358.16;6203362;28;96294;-66
2023/01/29 13:42:54;;;;;;;;;23.00;20.60;;;;;5.79;39.57;99357.16;6204907;28;96886;-66
2023/01/29 13:46:06;;;;;;;;;24.00;22.00;;;;;5.64;39.51;99358.94;6219807;28;98845;-66
2023/01/29 13:49:25;;;;;;;;;22.80;22.00;;;;;5.64;39.99;99369.66;6229862;28;96998;-66
2023/01/29 13:52:38;;;;;;;;;18.60;17.60;;;;;5.49;40.19;99366.91;6198786;28;96151;-66
2023/01/29 13:55:42;;;;;;;;;21.60;21.00;;;;;5.37;40.38;99346.97;6210966;28;99037;-65
2023/01/29 13:58:56;;;;;;;;;19.20;18.00;;;;;5.27;40.90;99351.69;6207254;28;96396;-65
2023/01/29 14:02:21;;;;;;;;;22.40;21.00;;;;;5.36;40.95;99352.47;6205156;28;96750;-66
2023/01/29 14:05:40;;;;;;;;;23.00;22.00;;;;;5.45;40.82;99351.41;6195539;28;98384;-66
2023/01/29 14:08:46;;;;;;;;;20.00;19.00;;;;;5.42;40.54;99365.16;6210434;28;96242;-65
2023/01/29 14:11:50;;;;;;;;;27.80;25.80;;;;;5.45;40.35;99362.09;6213445;28;96421;-65
2023/01/29 14:15:05;;;;;;;;;26.50;24.00;;;;;5.52;40.14;99360.41;6206955;28;96693;-66
2023/01/29 14:18:28;;;;;;;;;22.00;20.00;;;;;5.35;39.89;99365.00;6213646;28;96292;-65
2023/01/29 14:21:33;;;;;;;;;20.00;19.00;;;;;5.33;40.01;99348.28;6212166;28;97131;-67
2023/01/29 14:24:37;;;;;;;;;19.20;19.00;;;;;5.30;39.80;99351.34;6187095;28;98690;-67
2023/01/29 14:27:46;;;;;;;;;25.00;21.00;;;;;5.27;40.33;99345.53;6208091;28;98857;-67
2023/01/29 14:30:50;;;;;;;;;20.60;19.00;;;;;5.22;40.37;99335.34;6197950;28;96341;-67
2023/01/29 14:34:01;;;;;;;;;23.60;22.60;;;;;5.20;40.74;99342.72;6205550;28;97056;-65
2023/01/29 14:37:22;;;;;;;;;20.20;18.20;;;;;5.05;40.76;99337.28;6208643;28;96931;-66
2023/01/29 14:40:28;;;;;;;;;23.00;21.00;;;;;5.03;40.67;99347.34;6206856;28;96963;-66
2023/01/29 14:43:31;;;;;;;;;20.60;18.00;;;;;5.02;40.71;99345.66;6209180;28;96663;-66
2023/01/29 14:46:44;;;;;;;;;23.80;22.00;;;;;4.95;40.82;99338.50;6207666;28;97241;-66
2023/01/29 14:49:54;;;;;;;;;21.60;19.00;;;;;4.86;40.87;99343.06;6208727;28;96852;-65
2023/01/29 14:53:03;;;;;;;;;23.60;22.00;;;;;4.70;41.49;99338.63;6208641;28;96450;-65
2023/01/29 14:56:14;;;;;;;;;20.20;19.20;;;;;4.58;41.31;99341.84;6207142;28;96210;-65
2023/01/29 14:59:27;;;;;;;;;22.40;19.00;;;;;4.60;41.43;99329.97;6208511;28;96481;-67